sensor_id;sensor_type;location;lat;lon;timestamp;pressure;altitude;pressure_sealevel;temperature;humidity
72925;BME280;61070;50.794;7.054;2023-05-09T00:01:09;101064.91;;;14.67;100.00
72925;BME280;61070;50.794;7.054;2023-05-09T00:03:34;101061.31;;;14.68;100.00
72925;BME280;61070;50.794;7.054;2023-05-09T00:06:00;101048.81;;;14.70;100.00
72925;BME280;61070;50.794;7.054;2023-05-09T00:08:26;101062.75;;;14.84;100.00
72925;BME280;61070;50.794;7.054;2023-05-09T00:10:52;101054.06;;;14.75;100.00
72925;BME280;61070;50.794;7.054;2023-05-09T00:13:18;101046.13;;;14.72;100.00
72925;BME280;61070;50.794;7.054;2023-05-09T00:15:43;101046.09;;;14.73;100.00
72925;BME280;61070;50.794;7.054;2023-05-09T00:18:08;101045.34;;;14.67;100.00
72925;BME280;61070;50.794;7.054;2023-05-09T00:20:34;101035.72;;;14.61;100.00
72925;BME280;61070;50.794;7.054;2023-05-09T00:22:59;101029.59;;;14.56;100.00
72925;BME280;61070;50.794;7.054;2023-05-09T00:25:25;101032.44;;;14.48;100.00
72925;BME280;61070;50.794;7.054;2023-05-09T00:27:50;101035.19;;;14.44;100.00
72925;BME280;61070;50.794;7.054;2023-05-09T00:30:15;101030.84;;;14.38;100.00
72925;BME280;61070;50.794;7.054;2023-05-09T00:32:41;101026.47;;;14.36;100.00
72925;BME280;61070;50.794;7.054;2023-05-09T00:35:07;101031.75;;;14.37;100.00
72925;BME280;61070;50.794;7.054;2023-05-09T00:37:32;101027.25;;;14.41;100.00
72925;BME280;61070;50.794;7.054;2023-05-09T00:39:58;101033.50;;;14.40;100.00
72925;BME280;61070;50.794;7.054;2023-05-09T00:42:23;101028.19;;;14.40;100.00
72925;BME280;61070;50.794;7.054;2023-05-09T00:44:48;101021.09;;;14.39;100.00
72925;BME280;61070;50.794;7.054;2023-05-09T00:47:14;101012.28;;;14.35;100.00
72925;BME280;61070;50.794;7.054;2023-05-09T00:49:39;101011.22;;;14.42;100.00
72925;BME280;61070;50.794;7.054;2023-05-09T00:52:04;101005.97;;;14.39;100.00
72925;BME280;61070;50.794;7.054;2023-05-09T00:54:30;101012.97;;;14.45;100.00
72925;BME280;61070;50.794;7.054;2023-05-09T00:56:55;100997.06;;;14.40;100.00
72925;BME280;61070;50.794;7.054;2023-05-09T00:59:21;100995.41;;;14.35;100.00
72925;BME280;61070;50.794;7.054;2023-05-09T01:01:46;101001.63;;;14.35;100.00
72925;BME280;61070;50.794;7.054;2023-05-09T01:04:12;101008.66;;;14.38;100.00
72925;BME280;61070;50.794;7.054;2023-05-09T01:06:51;101003.28;;;14.41;100.00
72925;BME280;61070;50.794;7.054;2023-05-09T01:09:33;100995.19;;;14.44;100.00
72925;BME280;61070;50.794;7.054;2023-05-09T01:17:16;100996.06;;;14.46;100.00
72925;BME280;61070;50.794;7.054;2023-05-09T01:20:07;100991.66;;;14.43;100.00
72925;BME280;61070;50.794;7.054;2023-05-09T01:22:42;100977.41;;;14.46;100.00
72925;BME280;61070;50.794;7.054;2023-05-09T01:25:37;100977.47;;;14.43;100.00
72925;BME280;61070;50.794;7.054;2023-05-09T01:28:51;100976.47;;;14.48;100.00
72925;BME280;61070;50.794;7.054;2023-05-09T01:31:20;100971.88;;;14.55;100.00
72925;BME280;61070;50.794;7.054;2023-05-09T01:33:50;100972.69;;;14.57;100.00
72925;BME280;61070;50.794;7.054;2023-05-09T01:36:18;100967.38;;;14.57;100.00
72925;BME280;61070;50.794;7.054;2023-05-09T01:38:47;100972.69;;;14.57;100.00
72925;BME280;61070;50.794;7.054;2023-05-09T01:41:15;100968.13;;;14.64;100.00
72925;BME280;61070;50.794;7.054;2023-05-09T01:43:44;100956.66;;;14.59;100.00
72925;BME280;61070;50.794;7.054;2023-05-09T01:46:11;100956.72;;;14.57;100.00
72925;BME280;61070;50.794;7.054;2023-05-09T01:48:37;100968.25;;;14.57;100.00
72925;BME280;61070;50.794;7.054;2023-05-09T01:51:06;100965.50;;;14.62;100.00
72925;BME280;61070;50.794;7.054;2023-05-09T01:53:33;100953.94;;;14.62;100.00
72925;BME280;61070;50.794;7.054;2023-05-09T01:56:01;100961.94;;;14.62;100.00
72925;BME280;61070;50.794;7.054;2023-05-09T01:58:27;100964.78;;;14.54;100.00
72925;BME280;61070;50.794;7.054;2023-05-09T02:00:53;100955.78;;;14.58;100.00
72925;BME280;61070;50.794;7.054;2023-05-09T02:03:19;100961.91;;;14.63;100.00
72925;BME280;61070;50.794;7.054;2023-05-09T02:05:45;100963.78;;;14.58;100.00
72925;BME280;61070;50.794;7.054;2023-05-09T02:08:13;100969.28;;;14.52;100.00
72925;BME280;61070;50.794;7.054;2023-05-09T02:10:39;100969.94;;;14.62;100.00
72925;BME280;61070;50.794;7.054;2023-05-09T02:13:05;100960.06;;;14.65;100.00
72925;BME280;61070;50.794;7.054;2023-05-09T02:15:31;100963.66;;;14.64;100.00
72925;BME280;61070;50.794;7.054;2023-05-09T02:17:56;100965.50;;;14.62;100.00
72925;BME280;61070;50.794;7.054;2023-05-09T02:20:22;100961.91;;;14.63;100.00
72925;BME280;61070;50.794;7.054;2023-05-09T02:22:47;100957.50;;;14.62;100.00
72925;BME280;61070;50.794;7.054;2023-05-09T02:25:13;100958.25;;;14.67;100.00
72925;BME280;61070;50.794;7.054;2023-05-09T02:27:43;100955.50;;;14.70;100.00
72925;BME280;61070;50.794;7.054;2023-05-09T02:30:13;100943.03;;;14.71;100.00
72925;BME280;61070;50.794;7.054;2023-05-09T02:32:42;100942.94;;;14.75;100.00
72925;BME280;61070;50.794;7.054;2023-05-09T02:35:10;100940.34;;;14.72;100.00
72925;BME280;61070;50.794;7.054;2023-05-09T02:37:37;100949.31;;;14.68;100.00
72925;BME280;61070;50.794;7.054;2023-05-09T02:40:06;100944.63;;;14.78;100.00
72925;BME280;61070;50.794;7.054;2023-05-09T02:42:33;100940.44;;;14.68;100.00
72925;BME280;61070;50.794;7.054;2023-05-09T02:44:58;100936.00;;;14.68;100.00
72925;BME280;61070;50.794;7.054;2023-05-09T02:47:24;100937.69;;;14.71;100.00
72925;BME280;61070;50.794;7.054;2023-05-09T02:49:49;100937.69;;;14.71;100.00
72925;BME280;61070;50.794;7.054;2023-05-09T02:52:15;100937.69;;;14.71;100.00
72925;BME280;61070;50.794;7.054;2023-05-09T02:54:40;100929.81;;;14.66;100.00
72925;BME280;61070;50.794;7.054;2023-05-09T02:57:05;100928.81;;;14.70;100.00
72925;BME280;61070;50.794;7.054;2023-05-09T02:59:30;100920.91;;;14.67;100.00
72925;BME280;61070;50.794;7.054;2023-05-09T03:01:56;100922.63;;;14.70;100.00
72925;BME280;61070;50.794;7.054;2023-05-09T03:04:22;100921.91;;;14.63;100.00
72925;BME280;61070;50.794;7.054;2023-05-09T03:06:47;100922.81;;;14.62;100.00
72925;BME280;61070;50.794;7.054;2023-05-09T03:09:12;100917.31;;;14.68;100.00
72925;BME280;61070;50.794;7.054;2023-05-09T03:11:38;100909.44;;;14.64;100.00
72925;BME280;61070;50.794;7.054;2023-05-09T03:14:03;100912.22;;;14.59;100.00
72925;BME280;61070;50.794;7.054;2023-05-09T03:16:29;100914.97;;;14.56;100.00
72925;BME280;61070;50.794;7.054;2023-05-09T03:18:55;100914.94;;;14.57;100.00
72925;BME280;61070;50.794;7.054;2023-05-09T03:21:20;100906.97;;;14.56;100.00
72925;BME280;61070;50.794;7.054;2023-05-09T03:23:46;100903.38;;;14.57;100.00
72925;BME280;61070;50.794;7.054;2023-05-09T03:26:11;100905.22;;;14.55;100.00
72925;BME280;61070;50.794;7.054;2023-05-09T03:28:37;100905.22;;;14.55;100.00
72925;BME280;61070;50.794;7.054;2023-05-09T03:31:02;100902.63;;;14.52;100.00
72925;BME280;61070;50.794;7.054;2023-05-09T03:33:28;100901.72;;;14.53;100.00
72925;BME280;61070;50.794;7.054;2023-05-09T03:35:53;100904.31;;;14.56;100.00
72925;BME280;61070;50.794;7.054;2023-05-09T03:38:19;100909.50;;;14.61;100.00
72925;BME280;61070;50.794;7.054;2023-05-09T03:40:44;100899.75;;;14.61;100.00
72925;BME280;61070;50.794;7.054;2023-05-09T03:43:09;100898.94;;;14.57;100.00
72925;BME280;61070;50.794;7.054;2023-05-09T03:45:35;100895.34;;;14.59;100.00
72925;BME280;61070;50.794;7.054;2023-05-09T03:48:02;100889.03;;;14.63;100.00
72925;BME280;61070;50.794;7.054;2023-05-09T03:50:29;100888.91;;;14.67;100.00
72925;BME280;61070;50.794;7.054;2023-05-09T03:52:54;100880.16;;;14.62;100.00
72925;BME280;61070;50.794;7.054;2023-05-09T03:55:21;100883.63;;;14.66;100.00
72925;BME280;61070;50.794;7.054;2023-05-09T03:57:48;100887.13;;;14.68;100.00
72925;BME280;61070;50.794;7.054;2023-05-09T04:00:13;100879.31;;;14.60;100.00
72925;BME280;61070;50.794;7.054;2023-05-09T04:02:39;100883.75;;;14.61;100.00
72925;BME280;61070;50.794;7.054;2023-05-09T04:05:05;100874.84;;;14.62;100.00
72925;BME280;61070;50.794;7.054;2023-05-09T04:07:30;100885.41;;;14.65;100.00
72925;BME280;61070;50.794;7.054;2023-05-09T04:09:56;100883.63;;;14.66;100.00
72925;BME280;61070;50.794;7.054;2023-05-09T04:12:21;100882.84;;;14.61;100.00
72925;BME280;61070;50.794;7.054;2023-05-09T04:14:46;100880.13;;;14.64;100.00
72925;BME280;61070;50.794;7.054;2023-05-09T04:17:11;100871.16;;;14.66;100.00
72925;BME280;61070;50.794;7.054;2023-05-09T04:19:37;100864.91;;;14.67;100.00
72925;BME280;61070;50.794;7.054;2023-05-09T04:22:03;100860.50;;;14.66;100.00
72925;BME280;61070;50.794;7.054;2023-05-09T04:24:28;100866.66;;;14.68;100.00
72925;BME280;61070;50.794;7.054;2023-05-09T04:26:53;100862.25;;;14.67;100.00
72925;BME280;61070;50.794;7.054;2023-05-09T04:29:18;100858.75;;;14.65;100.00
72925;BME280;61070;50.794;7.054;2023-05-09T04:31:44;100860.50;;;14.66;100.00
72925;BME280;61070;50.794;7.054;2023-05-09T04:34:09;100859.63;;;14.66;100.00
72925;BME280;61070;50.794;7.054;2023-05-09T04:36:35;100856.09;;;14.65;100.00
72925;BME280;61070;50.794;7.054;2023-05-09T04:39:01;100860.50;;;14.66;100.00
72925;BME280;61070;50.794;7.054;2023-05-09T04:41:26;100857.97;;;14.62;100.00
72925;BME280;61070;50.794;7.054;2023-05-09T04:43:51;100856.19;;;14.61;100.00
72925;BME280;61070;50.794;7.054;2023-05-09T04:46:17;100854.28;;;14.66;100.00
72925;BME280;61070;50.794;7.054;2023-05-09T04:48:42;100856.09;;;14.65;100.00
72925;BME280;61070;50.794;7.054;2023-05-09T04:51:07;100846.25;;;14.67;100.00
72925;BME280;61070;50.794;7.054;2023-05-09T04:53:33;100846.28;;;14.66;100.00
72925;BME280;61070;50.794;7.054;2023-05-09T04:55:58;100841.75;;;14.69;100.00
72925;BME280;61070;50.794;7.054;2023-05-09T04:58:23;100840.69;;;14.76;100.00
72925;BME280;61070;50.794;7.054;2023-05-09T05:00:50;100847.56;;;14.83;100.00
72925;BME280;61070;50.794;7.054;2023-05-09T05:03:16;100850.09;;;14.90;100.00
72925;BME280;61070;50.794;7.054;2023-05-09T05:05:42;100849.06;;;14.94;100.00
72925;BME280;61070;50.794;7.054;2023-05-09T05:08:07;100842.72;;;14.99;100.00
72925;BME280;61070;50.794;7.054;2023-05-09T05:10:32;100848.88;;;15.01;100.00
72925;BME280;61070;50.794;7.054;2023-05-09T05:12:57;100846.94;;;15.08;100.00
72925;BME280;61070;50.794;7.054;2023-05-09T05:15:23;100843.25;;;15.12;100.00
72925;BME280;61070;50.794;7.054;2023-05-09T05:17:48;100842.16;;;15.19;100.00
72925;BME280;61070;50.794;7.054;2023-05-09T05:20:13;100834.22;;;15.16;100.00
72925;BME280;61070;50.794;7.054;2023-05-09T05:22:39;100834.94;;;15.23;100.00
72925;BME280;61070;50.794;7.054;2023-05-09T05:25:04;100835.81;;;15.23;100.00
72925;BME280;61070;50.794;7.054;2023-05-09T05:27:30;100836.25;;;15.37;100.00
72925;BME280;61070;50.794;7.054;2023-05-09T05:29:55;100827.84;;;15.51;100.00
72925;BME280;61070;50.794;7.054;2023-05-09T05:32:21;100834.09;;;15.52;100.00
72925;BME280;61070;50.794;7.054;2023-05-09T05:34:46;100825.94;;;15.56;100.00
72925;BME280;61070;50.794;7.054;2023-05-09T05:37:11;100824.88;;;15.62;100.00
72925;BME280;61070;50.794;7.054;2023-05-09T05:39:36;100824.88;;;15.62;100.00
72925;BME280;61070;50.794;7.054;2023-05-09T05:42:02;100815.06;;;15.64;100.00
72925;BME280;61070;50.794;7.054;2023-05-09T05:44:27;100813.00;;;15.72;100.00
72925;BME280;61070;50.794;7.054;2023-05-09T05:46:52;100813.47;;;15.85;100.00
72925;BME280;61070;50.794;7.054;2023-05-09T05:49:18;100812.41;;;15.90;100.00
72925;BME280;61070;50.794;7.054;2023-05-09T05:51:43;100818.47;;;15.97;100.00
72925;BME280;61070;50.794;7.054;2023-05-09T05:54:08;100797.56;;;16.08;100.00
72925;BME280;61070;50.794;7.054;2023-05-09T05:56:33;100807.91;;;16.19;100.00
72925;BME280;61070;50.794;7.054;2023-05-09T05:58:59;100808.78;;;16.19;100.00
72925;BME280;61070;50.794;7.054;2023-05-09T06:01:24;100805.88;;;16.27;100.00
72925;BME280;61070;50.794;7.054;2023-05-09T06:03:49;100804.69;;;16.36;100.00
72925;BME280;61070;50.794;7.054;2023-05-09T06:06:21;100803.56;;;16.43;100.00
72925;BME280;61070;50.794;7.054;2023-05-09T06:08:47;100800.28;;;16.35;100.00
72925;BME280;61070;50.794;7.054;2023-05-09T06:11:15;100798.22;;;16.43;100.00
72925;BME280;61070;50.794;7.054;2023-05-09T06:13:41;100800.91;;;16.41;100.00
72925;BME280;61070;50.794;7.054;2023-05-09T06:16:07;100796.41;;;16.43;100.00
72925;BME280;61070;50.794;7.054;2023-05-09T06:18:36;100798.34;;;16.38;100.00
72925;BME280;61070;50.794;7.054;2023-05-09T06:21:03;100797.13;;;16.48;100.00
72925;BME280;61070;50.794;7.054;2023-05-09T06:23:29;100793.81;;;16.67;100.00
72925;BME280;61070;50.794;7.054;2023-05-09T06:25:54;100787.13;;;16.53;100.00
72925;BME280;61070;50.794;7.054;2023-05-09T06:28:20;100795.59;;;16.68;100.00
72925;BME280;61070;50.794;7.054;2023-05-09T06:30:45;100794.03;;;16.85;100.00
72925;BME280;61070;50.794;7.054;2023-05-09T06:33:10;100795.41;;;16.72;100.00
72925;BME280;61070;50.794;7.054;2023-05-09T06:35:35;100797.56;;;16.86;100.00
72925;BME280;61070;50.794;7.054;2023-05-09T06:38:01;100786.97;;;17.08;100.00
72925;BME280;61070;50.794;7.054;2023-05-09T06:40:26;100784.41;;;17.05;100.00
72925;BME280;61070;50.794;7.054;2023-05-09T06:42:52;100781.66;;;17.06;100.00
72925;BME280;61070;50.794;7.054;2023-05-09T06:45:17;100770.75;;;17.12;100.00
72925;BME280;61070;50.794;7.054;2023-05-09T06:47:42;100777.19;;;17.30;100.00
72925;BME280;61070;50.794;7.054;2023-05-09T06:50:08;100774.28;;;17.36;100.00
72925;BME280;61070;50.794;7.054;2023-05-09T06:52:33;100770.19;;;17.50;99.54
72925;BME280;61070;50.794;7.054;2023-05-09T06:54:58;100773.69;;;17.52;100.00
72925;BME280;61070;50.794;7.054;2023-05-09T06:57:23;100770.78;;;17.58;98.66
72925;BME280;61070;50.794;7.054;2023-05-09T06:59:49;100756.09;;;17.66;97.27
72925;BME280;61070;50.794;7.054;2023-05-09T07:02:14;100748.88;;;17.92;95.29
72925;BME280;61070;50.794;7.054;2023-05-09T07:04:40;100750.84;;;17.87;94.73
72925;BME280;61070;50.794;7.054;2023-05-09T07:07:05;100745.19;;;17.94;94.86
72925;BME280;61070;50.794;7.054;2023-05-09T07:09:31;100729.84;;;17.98;93.31
72925;BME280;61070;50.794;7.054;2023-05-09T07:11:58;100736.56;;;18.08;93.49
72925;BME280;61070;50.794;7.054;2023-05-09T07:14:24;100733.03;;;18.28;91.66
72925;BME280;61070;50.794;7.054;2023-05-09T07:16:49;100725.97;;;18.46;89.86
72925;BME280;61070;50.794;7.054;2023-05-09T07:19:15;100718.47;;;18.54;88.87
72925;BME280;61070;50.794;7.054;2023-05-09T07:21:40;100716.06;;;18.27;88.22
72925;BME280;61070;50.794;7.054;2023-05-09T07:24:05;100719.41;;;18.32;86.75
72925;BME280;61070;50.794;7.054;2023-05-09T07:26:31;100707.88;;;18.30;86.50
72925;BME280;61070;50.794;7.054;2023-05-09T07:28:56;100713.56;;;18.43;87.11
72925;BME280;61070;50.794;7.054;2023-05-09T07:31:22;100707.00;;;18.50;85.59
72925;BME280;61070;50.794;7.054;2023-05-09T07:33:47;100708.75;;;18.72;83.06
72925;BME280;61070;50.794;7.054;2023-05-09T07:36:12;100708.00;;;18.68;83.61
72925;BME280;61070;50.794;7.054;2023-05-09T07:38:40;100701.97;;;18.83;82.34
72925;BME280;61070;50.794;7.054;2023-05-09T07:41:05;100702.91;;;18.82;82.99
72925;BME280;61070;50.794;7.054;2023-05-09T07:43:31;100702.03;;;19.01;81.13
72925;BME280;61070;50.794;7.054;2023-05-09T07:45:56;100709.03;;;19.05;77.81
72925;BME280;61070;50.794;7.054;2023-05-09T07:48:21;100695.44;;;19.08;79.39
72925;BME280;61070;50.794;7.054;2023-05-09T07:50:47;100687.81;;;19.17;79.75
72925;BME280;61070;50.794;7.054;2023-05-09T07:53:12;100685.34;;;19.32;78.75
72925;BME280;61070;50.794;7.054;2023-05-09T07:55:37;100682.66;;;19.32;76.20
72925;BME280;61070;50.794;7.054;2023-05-09T07:58:02;100683.00;;;19.43;76.18
72925;BME280;61070;50.794;7.054;2023-05-09T08:00:28;100677.41;;;19.66;75.46
72925;BME280;61070;50.794;7.054;2023-05-09T08:02:53;100683.31;;;19.56;74.61
72925;BME280;61070;50.794;7.054;2023-05-09T08:05:19;100679.56;;;19.77;72.08
72925;BME280;61070;50.794;7.054;2023-05-09T08:07:45;100668.88;;;19.75;69.62
72925;BME280;61070;50.794;7.054;2023-05-09T08:10:10;100672.56;;;19.56;72.68
72925;BME280;61070;50.794;7.054;2023-05-09T08:12:36;100663.19;;;19.82;72.15
72925;BME280;61070;50.794;7.054;2023-05-09T08:15:01;100660.31;;;19.67;69.78
72925;BME280;61070;50.794;7.054;2023-05-09T08:17:27;100656.44;;;19.56;69.82
72925;BME280;61070;50.794;7.054;2023-05-09T08:19:52;100649.03;;;19.42;70.89
72925;BME280;61070;50.794;7.054;2023-05-09T08:22:18;100646.38;;;19.59;71.73
72925;BME280;61070;50.794;7.054;2023-05-09T08:24:44;100644.44;;;19.80;70.25
72925;BME280;61070;50.794;7.054;2023-05-09T08:27:13;100632.66;;;20.17;68.59
72925;BME280;61070;50.794;7.054;2023-05-09T08:29:39;100630.75;;;20.02;66.97
72925;BME280;61070;50.794;7.054;2023-05-09T08:32:05;100633.28;;;20.22;65.99
72925;BME280;61070;50.794;7.054;2023-05-09T08:34:30;100625.97;;;20.42;65.51
72925;BME280;61070;50.794;7.054;2023-05-09T08:36:59;100626.28;;;20.35;66.25
72925;BME280;61070;50.794;7.054;2023-05-09T08:39:25;100622.91;;;20.15;65.40
72925;BME280;61070;50.794;7.054;2023-05-09T08:41:52;100622.91;;;20.15;65.28
72925;BME280;61070;50.794;7.054;2023-05-09T08:44:18;100621.13;;;19.98;65.75
72925;BME280;61070;50.794;7.054;2023-05-09T08:46:46;100618.34;;;20.17;65.88
72925;BME280;61070;50.794;7.054;2023-05-09T08:49:14;100606.56;;;20.19;65.64
72925;BME280;61070;50.794;7.054;2023-05-09T08:51:39;100606.09;;;20.11;63.78
72925;BME280;61070;50.794;7.054;2023-05-09T08:54:05;100600.50;;;20.31;63.88
72925;BME280;61070;50.794;7.054;2023-05-09T08:56:30;100603.34;;;20.46;63.77
72925;BME280;61070;50.794;7.054;2023-05-09T08:58:56;100594.88;;;20.53;63.40
72925;BME280;61070;50.794;7.054;2023-05-09T09:01:21;100587.47;;;20.57;63.35
72925;BME280;61070;50.794;7.054;2023-05-09T09:03:47;100590.81;;;20.62;63.00
72925;BME280;61070;50.794;7.054;2023-05-09T09:06:14;100583.22;;;20.53;64.00
72925;BME280;61070;50.794;7.054;2023-05-09T09:08:41;100590.59;;;20.49;64.19
72925;BME280;61070;50.794;7.054;2023-05-09T09:11:09;100584.34;;;20.49;64.32
72925;BME280;61070;50.794;7.054;2023-05-09T09:13:36;100578.03;;;20.66;64.08
72925;BME280;61070;50.794;7.054;2023-05-09T09:16:05;100574.25;;;20.85;63.19
72925;BME280;61070;50.794;7.054;2023-05-09T09:18:33;100568.75;;;20.87;62.57
72925;BME280;61070;50.794;7.054;2023-05-09T09:21:05;100571.34;;;21.04;63.93
72925;BME280;61070;50.794;7.054;2023-05-09T09:23:31;100561.28;;;21.08;62.59
72925;BME280;61070;50.794;7.054;2023-05-09T09:26:01;100570.38;;;21.37;62.98
72925;BME280;61070;50.794;7.054;2023-05-09T09:28:29;100558.94;;;21.33;62.58
72925;BME280;61070;50.794;7.054;2023-05-09T09:30:54;100550.00;;;21.47;61.49
72925;BME280;61070;50.794;7.054;2023-05-09T09:33:22;100552.91;;;21.44;61.63
72925;BME280;61070;50.794;7.054;2023-05-09T09:35:52;100546.81;;;21.70;60.50
72925;BME280;61070;50.794;7.054;2023-05-09T09:38:17;100545.41;;;21.49;62.25
72925;BME280;61070;50.794;7.054;2023-05-09T09:40:48;100533.19;;;21.12;62.62
72925;BME280;61070;50.794;7.054;2023-05-09T09:43:16;100541.69;;;21.36;62.14
72925;BME280;61070;50.794;7.054;2023-05-09T09:45:42;100532.66;;;21.37;63.52
72925;BME280;61070;50.794;7.054;2023-05-09T09:48:07;100539.84;;;21.52;60.83
72925;BME280;61070;50.794;7.054;2023-05-09T09:50:32;100527.50;;;21.48;60.19
72925;BME280;61070;50.794;7.054;2023-05-09T09:52:58;100534.16;;;21.27;61.02
72925;BME280;61070;50.794;7.054;2023-05-09T09:55:25;100520.75;;;21.41;60.67
72925;BME280;61070;50.794;7.054;2023-05-09T09:57:51;100525.63;;;21.78;60.28
72925;BME280;61070;50.794;7.054;2023-05-09T10:00:18;100523.50;;;21.84;61.95
72925;BME280;61070;50.794;7.054;2023-05-09T10:02:48;100516.59;;;21.79;58.11
72925;BME280;61070;50.794;7.054;2023-05-09T10:05:25;100508.50;;;21.94;59.47
72925;BME280;61070;50.794;7.054;2023-05-09T10:07:54;100508.16;;;22.14;58.50
72925;BME280;61070;50.794;7.054;2023-05-09T10:10:21;100498.72;;;22.07;61.28
72925;BME280;61070;50.794;7.054;2023-05-09T10:12:47;100501.25;;;22.10;61.50
72925;BME280;61070;50.794;7.054;2023-05-09T10:15:16;100497.75;;;22.22;61.22
72925;BME280;61070;50.794;7.054;2023-05-09T10:17:44;100497.44;;;21.98;60.57
72925;BME280;61070;50.794;7.054;2023-05-09T10:20:10;100491.56;;;22.34;61.31
72925;BME280;61070;50.794;7.054;2023-05-09T10:22:38;100494.22;;;22.63;60.41
72925;BME280;61070;50.794;7.054;2023-05-09T10:25:13;100487.31;;;22.45;59.19
72925;BME280;61070;50.794;7.054;2023-05-09T10:27:44;100480.69;;;22.07;58.74
72925;BME280;61070;50.794;7.054;2023-05-09T10:30:27;100480.78;;;22.34;57.44
72925;BME280;61070;50.794;7.054;2023-05-09T10:33:04;100474.78;;;22.29;58.43
72925;BME280;61070;50.794;7.054;2023-05-09T10:35:44;100464.59;;;22.34;58.13
72925;BME280;61070;50.794;7.054;2023-05-09T10:38:10;100466.09;;;22.38;55.88
72925;BME280;61070;50.794;7.054;2023-05-09T10:40:37;100456.28;;;22.37;56.61
72925;BME280;61070;50.794;7.054;2023-05-09T10:43:02;100450.00;;;22.37;56.88
72925;BME280;61070;50.794;7.054;2023-05-09T10:45:30;100449.91;;;22.38;56.75
72925;BME280;61070;50.794;7.054;2023-05-09T10:47:56;100444.56;;;22.51;55.42
72925;BME280;61070;50.794;7.054;2023-05-09T10:50:22;100446.44;;;22.36;56.84
72925;BME280;61070;50.794;7.054;2023-05-09T10:55:47;100436.19;;;22.56;54.89
72925;BME280;61070;50.794;7.054;2023-05-09T11:00:49;100426.88;;;23.01;55.22
72925;BME280;61070;50.794;7.054;2023-05-09T11:03:15;100432.78;;;23.33;54.92
72925;BME280;61070;50.794;7.054;2023-05-09T11:05:44;100414.16;;;23.16;55.00
72925;BME280;61070;50.794;7.054;2023-05-09T11:10:55;100410.56;;;23.03;55.78
72925;BME280;61070;50.794;7.054;2023-05-09T11:13:21;100402.66;;;23.00;56.29
72925;BME280;61070;50.794;7.054;2023-05-09T11:18:24;100394.59;;;22.85;58.93
72925;BME280;61070;50.794;7.054;2023-05-09T11:20:50;100401.78;;;22.72;59.19
72925;BME280;61070;50.794;7.054;2023-05-09T11:23:18;100396.13;;;22.62;61.11
72925;BME280;61070;50.794;7.054;2023-05-09T11:25:45;100388.78;;;22.64;59.35
72925;BME280;61070;50.794;7.054;2023-05-09T11:28:28;100389.88;;;22.89;58.93
72925;BME280;61070;50.794;7.054;2023-05-09T11:31:07;100380.63;;;23.06;57.72
72925;BME280;61070;50.794;7.054;2023-05-09T11:33:35;100377.03;;;23.05;57.83
72925;BME280;61070;50.794;7.054;2023-05-09T11:36:41;100371.34;;;23.22;57.55
72925;BME280;61070;50.794;7.054;2023-05-09T11:39:10;100373.88;;;22.99;57.14
72925;BME280;61070;50.794;7.054;2023-05-09T11:41:38;100351.66;;;23.20;57.05
72925;BME280;61070;50.794;7.054;2023-05-09T11:44:14;100348.50;;;23.90;57.14
72925;BME280;61070;50.794;7.054;2023-05-09T11:46:41;100343.66;;;23.70;55.88
72925;BME280;61070;50.794;7.054;2023-05-09T11:49:06;100336.41;;;23.70;54.48
72925;BME280;61070;50.794;7.054;2023-05-09T11:51:35;100337.81;;;23.76;54.05
72925;BME280;61070;50.794;7.054;2023-05-09T11:54:03;100329.81;;;23.62;54.74
72925;BME280;61070;50.794;7.054;2023-05-09T11:56:29;100342.59;;;23.47;55.25
72925;BME280;61070;50.794;7.054;2023-05-09T11:58:54;100332.19;;;23.03;56.99
72925;BME280;61070;50.794;7.054;2023-05-09T12:01:21;100323.44;;;23.24;56.01
72925;BME280;61070;50.794;7.054;2023-05-09T12:03:46;100321.38;;;23.28;54.06
72925;BME280;61070;50.794;7.054;2023-05-09T12:06:14;100317.28;;;23.22;55.02
72925;BME280;61070;50.794;7.054;2023-05-09T12:08:40;100314.59;;;23.35;54.97
72925;BME280;61070;50.794;7.054;2023-05-09T12:11:09;100311.88;;;23.35;54.73
72925;BME280;61070;50.794;7.054;2023-05-09T12:13:34;100306.00;;;23.79;53.56
72925;BME280;61070;50.794;7.054;2023-05-09T12:16:03;100301.38;;;23.69;54.25
72925;BME280;61070;50.794;7.054;2023-05-09T12:18:28;100304.84;;;23.58;53.56
72925;BME280;61070;50.794;7.054;2023-05-09T12:20:54;100295.84;;;23.58;52.74
72925;BME280;61070;50.794;7.054;2023-05-09T12:23:19;100297.38;;;23.62;54.20
72925;BME280;61070;50.794;7.054;2023-05-09T12:25:54;100296.09;;;23.29;53.63
72925;BME280;61070;50.794;7.054;2023-05-09T12:28:24;100292.75;;;23.13;54.76
72925;BME280;61070;50.794;7.054;2023-05-09T12:30:50;100288.22;;;23.01;55.02
72925;BME280;61070;50.794;7.054;2023-05-09T12:33:16;100291.81;;;22.74;55.65
72925;BME280;61070;50.794;7.054;2023-05-09T12:35:48;100280.25;;;22.72;55.29
72925;BME280;61070;50.794;7.054;2023-05-09T12:38:19;100279.19;;;22.87;55.69
72925;BME280;61070;50.794;7.054;2023-05-09T12:40:58;100275.00;;;22.83;53.88
72925;BME280;61070;50.794;7.054;2023-05-09T12:43:24;100266.13;;;23.19;54.47
72925;BME280;61070;50.794;7.054;2023-05-09T12:45:52;100273.84;;;23.13;52.83
72925;BME280;61070;50.794;7.054;2023-05-09T12:48:21;100261.03;;;23.40;52.20
72925;BME280;61070;50.794;7.054;2023-05-09T12:50:47;100251.78;;;23.56;51.99
72925;BME280;61070;50.794;7.054;2023-05-09T12:53:12;100251.81;;;23.68;52.32
72925;BME280;61070;50.794;7.054;2023-05-09T12:55:38;100248.69;;;23.49;52.21
72925;BME280;61070;50.794;7.054;2023-05-09T12:58:07;100244.22;;;23.73;52.90
72925;BME280;61070;50.794;7.054;2023-05-09T13:00:43;100240.66;;;23.73;50.64